createdAt,value
2018-03-01T00:00:18.313Z,-6.04
2018-03-01T00:01:28.090Z,-5.98
2018-03-01T00:02:38.143Z,-6.04
2018-03-01T00:03:47.653Z,-5.97
2018-03-01T00:04:57.450Z,-5.99
2018-03-01T00:06:07.032Z,-6.08
2018-03-01T00:07:17.080Z,-6.05
2018-03-01T00:08:26.613Z,-6.07
2018-03-01T00:09:36.653Z,-6.08
2018-03-01T00:10:46.494Z,-6.07
2018-03-01T00:11:56.545Z,-6.16
2018-03-01T00:13:06.323Z,-6.07
2018-03-01T00:14:15.872Z,-6.12
2018-03-01T00:15:25.665Z,-6.15
2018-03-01T00:16:35.205Z,-6.16
2018-03-01T00:17:45.272Z,-6.18
2018-03-01T00:18:55.349Z,-6.16
2018-03-01T00:20:05.139Z,-6.13
2018-03-01T00:21:15.205Z,-6.15
2018-03-01T00:22:24.552Z,-6.15
2018-03-01T00:23:34.591Z,-6.19
2018-03-01T00:24:43.587Z,-6.31
2018-03-01T00:25:53.632Z,-6.22
2018-03-01T00:27:03.414Z,-6.26
2018-03-01T00:28:13.211Z,-6.25
2018-03-01T00:29:22.993Z,-6.28
2018-03-01T00:30:33.055Z,-6.36
2018-03-01T00:31:42.867Z,-6.38
2018-03-01T00:32:52.652Z,-6.37
2018-03-01T00:34:02.509Z,-6.38
2018-03-01T00:35:12.295Z,-6.48
2018-03-01T00:36:22.343Z,-6.46
2018-03-01T00:37:32.399Z,-6.51
2018-03-01T00:38:42.451Z,-6.52
2018-03-01T00:39:52.504Z,-6.55
2018-03-01T00:41:02.026Z,-6.51
2018-03-01T00:42:11.578Z,-6.51
2018-03-01T00:43:21.383Z,-6.55
2018-03-01T00:44:31.421Z,-6.55
2018-03-01T00:45:41.488Z,-6.52
2018-03-01T00:46:50.759Z,-6.65
2018-03-01T00:48:00.846Z,-6.65
2018-03-01T00:49:10.888Z,-6.63
2018-03-01T00:50:20.669Z,-6.73
2018-03-01T00:51:30.492Z,-6.7
2018-03-01T00:52:40.292Z,-6.63
2018-03-01T00:53:50.087Z,-6.71
2018-03-01T00:54:59.869Z,-6.74
2018-03-01T00:56:09.657Z,-6.77
2018-03-01T00:57:19.460Z,-6.73
2018-03-01T00:58:29.238Z,-6.77
2018-03-01T00:59:39.295Z,-6.74
2018-03-01T01:00:49.099Z,-6.76
2018-03-01T01:01:58.888Z,-6.88
2018-03-01T01:03:08.668Z,-6.8
2018-03-01T01:04:17.922Z,-6.84
2018-03-01T01:05:27.974Z,-6.87
2018-03-01T01:06:38.039Z,-6.83
2018-03-01T01:07:47.831Z,-6.87
2018-03-01T01:08:57.877Z,-6.87
2018-03-01T01:10:07.934Z,-6.87
2018-03-01T01:11:17.711Z,-6.8
2018-03-01T01:12:27.479Z,-6.81
2018-03-01T01:13:37.248Z,-6.83
2018-03-01T01:14:47.028Z,-6.88
2018-03-01T01:15:56.800Z,-6.91
2018-03-01T01:17:06.849Z,-6.89
2018-03-01T01:18:16.920Z,-6.98
2018-03-01T01:19:26.174Z,-6.97
2018-03-01T01:20:35.960Z,-6.94
2018-03-01T01:21:45.732Z,-7.05
2018-03-01T01:22:55.787Z,-6.97
2018-03-01T01:24:05.583Z,-6.98
2018-03-01T01:25:15.426Z,-6.99
2018-03-01T01:26:25.483Z,-7.05
2018-03-01T01:27:35.522Z,-7.1
2018-03-01T01:28:45.297Z,-7.01
2018-03-01T01:29:54.799Z,-7.02
2018-03-01T01:31:04.585Z,-7.19
2018-03-01T01:32:14.369Z,-7.2
2018-03-01T01:33:24.156Z,-7.1
2018-03-01T01:34:33.661Z,-7.1
2018-03-01T01:35:43.502Z,-7.22
2018-03-01T01:36:53.546Z,-7.22
2018-03-01T01:38:03.072Z,-7.2
2018-03-01T01:39:12.863Z,-7.15
2018-03-01T01:40:22.657Z,-7.26
2018-03-01T01:41:32.709Z,-7.2
2018-03-01T01:42:42.233Z,-7.3
2018-03-01T01:43:52.000Z,-7.26
2018-03-01T01:45:01.786Z,-7.28
2018-03-01T01:46:11.574Z,-7.34
2018-03-01T01:47:21.636Z,-7.28
2018-03-01T01:48:31.484Z,-7.36
2018-03-01T01:49:41.531Z,-7.33
2018-03-01T01:50:51.594Z,-7.38
2018-03-01T01:52:01.372Z,-7.33
2018-03-01T01:53:11.148Z,-7.45
2018-03-01T01:54:20.991Z,-7.49
2018-03-01T01:55:30.780Z,-7.52
2018-03-01T01:56:40.593Z,-7.45
2018-03-01T01:57:50.421Z,-7.52
2018-03-01T01:59:00.212Z,-7.55
2018-03-01T02:00:10.155Z,-7.55
2018-03-01T02:01:19.931Z,-7.63
2018-03-01T02:02:30.034Z,-7.66
2018-03-01T02:03:39.505Z,-7.65
2018-03-01T02:04:49.544Z,-7.7
2018-03-01T02:05:59.603Z,-7.72
2018-03-01T02:07:09.653Z,-7.72
2018-03-01T02:08:19.442Z,-7.72
2018-03-01T02:09:29.568Z,-7.75
2018-03-01T02:10:39.346Z,-7.66
2018-03-01T02:11:48.867Z,-7.76
2018-03-01T02:12:58.631Z,-7.76
2018-03-01T02:14:08.683Z,-7.76
2018-03-01T02:15:18.737Z,-7.77
2018-03-01T02:16:28.783Z,-7.7
2018-03-01T02:17:38.575Z,-7.81
2018-03-01T02:18:48.619Z,-7.86
2018-03-01T02:19:58.654Z,-7.83
2018-03-01T02:21:08.225Z,-7.86
2018-03-01T02:22:18.284Z,-7.86
2018-03-01T02:23:28.334Z,-7.98
2018-03-01T02:24:38.119Z,-7.98
2018-03-01T02:25:48.164Z,-7.94
2018-03-01T02:26:57.674Z,-8.1
2018-03-01T02:28:07.492Z,-8.09
2018-03-01T02:29:17.535Z,-8.16
2018-03-01T02:30:27.586Z,-8.26
2018-03-01T02:31:37.631Z,-8.16
2018-03-01T02:32:47.481Z,-8.27
2018-03-01T02:33:57.560Z,-8.3
2018-03-01T02:35:07.617Z,-8.28
2018-03-01T02:36:17.411Z,-8.39
2018-03-01T02:37:27.207Z,-8.42
2018-03-01T02:38:37.258Z,-8.33
2018-03-01T02:39:47.298Z,-8.42
2018-03-01T02:40:57.080Z,-8.41
2018-03-01T02:42:07.140Z,-8.41
2018-03-01T02:43:17.207Z,-8.46
2018-03-01T02:44:26.714Z,-8.45
2018-03-01T02:45:37.033Z,-8.48
2018-03-01T02:46:47.094Z,-8.51
2018-03-01T02:47:56.885Z,-8.49
2018-03-01T02:49:06.686Z,-8.52
2018-03-01T02:50:16.712Z,-8.49
2018-03-01T02:51:26.233Z,-8.46
2018-03-01T02:52:36.292Z,-8.45
2018-03-01T02:53:46.080Z,-8.52
2018-03-01T02:54:55.852Z,-8.52
2018-03-01T02:56:05.895Z,-8.54
2018-03-01T02:57:15.676Z,-8.54
2018-03-01T02:58:25.921Z,-8.49
2018-03-01T02:59:36.389Z,-8.49
2018-03-01T03:00:46.180Z,-8.62
2018-03-01T03:01:56.228Z,-8.51
2018-03-01T03:03:05.756Z,-8.56
2018-03-01T03:04:15.545Z,-8.63
2018-03-01T03:05:25.658Z,-8.6
2018-03-01T03:06:35.709Z,-8.6
2018-03-01T03:07:45.487Z,-8.57
2018-03-01T03:39:11.164Z,-10.61
2018-03-01T03:40:21.191Z,-10.58
2018-03-01T03:41:31.245Z,-10.52
2018-03-01T03:42:41.300Z,-10.4
2018-03-01T03:43:51.077Z,-10.4
2018-03-01T03:45:00.852Z,-10.19
2018-03-01T03:46:10.890Z,-9.94
2018-03-01T03:47:20.397Z,-9.77
2018-03-01T03:48:30.454Z,-9.48
2018-03-01T03:49:40.488Z,-9.36
2018-03-01T03:50:50.296Z,-9.16
2018-03-01T03:52:00.334Z,-9.08
2018-03-01T03:53:10.386Z,-8.86
2018-03-01T03:54:20.424Z,-8.78
2018-03-01T03:55:30.493Z,-8.66
2018-03-01T03:56:40.527Z,-8.54
2018-03-01T03:57:50.572Z,-8.36
2018-03-01T03:59:00.643Z,-8.33
2018-03-01T04:00:10.695Z,-8.18
2018-03-01T04:01:20.735Z,-8.2
2018-03-01T04:02:30.522Z,-8.02
2018-03-01T04:03:40.636Z,-8.06
2018-03-01T04:04:50.432Z,-7.98
2018-03-01T04:06:00.466Z,-7.84
2018-03-01T04:07:10.518Z,-7.84
2018-03-01T04:08:20.344Z,-7.87
2018-03-01T04:09:30.132Z,-7.81
2018-03-01T04:10:39.907Z,-7.81
2018-03-01T04:11:49.955Z,-7.76
2018-03-01T04:13:00.007Z,-7.75
2018-03-01T04:14:10.059Z,-7.67
2018-03-01T04:15:19.836Z,-7.73
2018-03-01T04:16:29.641Z,-7.73
2018-03-01T04:17:39.429Z,-7.75
2018-03-01T04:18:49.470Z,-7.72
2018-03-01T04:19:59.557Z,-7.7
2018-03-01T04:21:09.342Z,-7.59
2018-03-01T04:22:19.134Z,-7.73
2018-03-01T04:23:29.172Z,-7.7
2018-03-01T04:24:39.218Z,-7.69
2018-03-01T04:25:48.796Z,-7.65
2018-03-01T04:26:58.577Z,-7.59
2018-03-01T04:28:08.629Z,-7.58
2018-03-01T04:29:18.156Z,-7.56
2018-03-01T04:30:28.203Z,-7.58
2018-03-01T04:31:38.249Z,-7.65
2018-03-01T04:32:47.516Z,-7.59
2018-03-01T04:33:57.293Z,-7.62
2018-03-01T04:35:06.820Z,-7.56
2018-03-01T04:36:16.600Z,-7.69
2018-03-01T04:37:26.383Z,-7.67
2018-03-01T04:38:36.176Z,-7.65
2018-03-01T04:39:46.220Z,-7.72
2018-03-01T04:40:56.294Z,-7.72
2018-03-01T04:42:06.348Z,-7.8
2018-03-01T04:43:16.397Z,-7.72
2018-03-01T04:44:26.177Z,-7.75
2018-03-01T04:45:36.234Z,-7.73
2018-03-01T04:46:46.279Z,-7.76
2018-03-01T04:47:56.329Z,-7.77
2018-03-01T04:49:06.448Z,-7.69
2018-03-01T04:50:16.528Z,-7.76
2018-03-01T04:51:26.598Z,-7.75
2018-03-01T04:52:36.662Z,-7.76
2018-03-01T04:53:46.172Z,-7.75
2018-03-01T04:54:55.960Z,-7.7
2018-03-01T04:56:05.740Z,-7.8
2018-03-01T04:57:15.537Z,-7.76
2018-03-01T04:58:25.390Z,-7.76
2018-03-01T04:59:35.179Z,-7.83
2018-03-01T05:00:45.282Z,-7.84
2018-03-01T05:01:55.074Z,-7.8
2018-03-01T05:03:05.126Z,-7.87
2018-03-01T05:04:14.913Z,-7.77
2018-03-01T05:05:24.684Z,-7.76
2018-03-01T05:06:34.781Z,-7.88
2018-03-01T05:07:44.833Z,-7.86
2018-03-01T05:08:54.895Z,-7.88
2018-03-01T05:10:04.936Z,-7.77
2018-03-01T05:11:14.736Z,-7.8
2018-03-01T05:12:24.520Z,-7.88
2018-03-01T05:13:34.564Z,-7.86
2018-03-01T05:14:44.624Z,-7.91
2018-03-01T05:15:54.710Z,-7.83
2018-03-01T05:17:04.498Z,-7.86
2018-03-01T05:18:14.289Z,-7.88
2018-03-01T05:19:24.094Z,-7.83
2018-03-01T05:20:33.888Z,-7.81
2018-03-01T05:21:43.945Z,-7.84
2018-03-01T05:22:53.988Z,-7.9
2018-03-01T05:24:03.775Z,-7.81
2018-03-01T05:25:13.830Z,-7.83
2018-03-01T05:26:23.631Z,-7.88
2018-03-01T05:27:33.688Z,-7.86
2018-03-01T05:28:43.745Z,-7.83
2018-03-01T05:29:53.537Z,-7.77
2018-03-01T05:31:03.322Z,-7.86
2018-03-01T05:32:13.367Z,-7.84
2018-03-01T05:33:23.417Z,-7.83
2018-03-01T05:34:33.488Z,-7.81
2018-03-01T05:35:42.770Z,-7.81
2018-03-01T05:36:52.571Z,-7.72
2018-03-01T05:38:02.633Z,-7.81
2018-03-01T05:39:12.683Z,-7.75
2018-03-01T05:40:22.733Z,-7.73
2018-03-01T05:41:33.079Z,-7.81
2018-03-01T05:42:43.125Z,-7.76
2018-03-01T05:43:52.902Z,-7.76
2018-03-01T05:45:02.944Z,-7.75
2018-03-01T05:46:13.045Z,-7.63
2018-03-01T05:47:22.823Z,-7.73
2018-03-01T05:48:32.866Z,-7.56
2018-03-01T05:49:42.911Z,-7.72
2018-03-01T05:50:53.024Z,-7.56
2018-03-01T05:52:03.074Z,-7.63
2018-03-01T05:53:13.172Z,-7.59
2018-03-01T05:54:22.955Z,-7.55
2018-03-01T05:55:32.739Z,-7.54
2018-03-01T05:56:42.537Z,-7.49
2018-03-01T05:57:52.329Z,-7.36
2018-03-01T05:59:02.130Z,-7.42
2018-03-01T06:00:11.659Z,-7.31
2018-03-01T06:01:21.438Z,-7.31
2018-03-01T06:02:31.245Z,-7.3
2018-03-01T06:03:41.118Z,-7.28
2018-03-01T06:04:50.954Z,-7.22
2018-03-01T06:06:00.996Z,-7.15
2018-03-01T06:07:10.782Z,-7.12
2018-03-01T06:08:20.562Z,-7.13
2018-03-01T06:09:30.475Z,-7.22
2018-03-01T06:10:40.569Z,-7.16
2018-03-01T06:11:50.638Z,-7.09
2018-03-01T06:13:00.429Z,-7.05
2018-03-01T06:14:10.214Z,-7.02
2018-03-01T06:15:20.270Z,-6.95
2018-03-01T06:16:30.058Z,-7.02
2018-03-01T06:17:40.099Z,-6.92
2018-03-01T06:18:50.161Z,-6.94
2018-03-01T06:20:00.259Z,-6.92
2018-03-01T06:21:10.030Z,-6.83
2018-03-01T06:22:19.815Z,-6.8
2018-03-01T06:23:29.595Z,-6.76
2018-03-01T06:24:39.646Z,-6.77
2018-03-01T06:25:49.434Z,-6.74
2018-03-01T06:26:59.488Z,-6.76
2018-03-01T06:28:09.055Z,-6.67
2018-03-01T06:29:19.092Z,-6.67
2018-03-01T06:30:28.874Z,-6.67
2018-03-01T06:31:38.661Z,-6.55
2018-03-01T06:32:48.707Z,-6.58
2018-03-01T06:33:58.743Z,-6.46
2018-03-01T06:35:08.779Z,-6.52
2018-03-01T06:36:18.880Z,-6.4
2018-03-01T06:37:28.669Z,-6.37
2018-03-01T06:38:38.457Z,-6.31
2018-03-01T06:39:48.512Z,-6.3
2018-03-01T06:40:58.292Z,-6.2
2018-03-01T06:42:08.346Z,-6.16
2018-03-01T06:43:18.397Z,-6.1
2018-03-01T06:44:28.184Z,-6.15
2018-03-01T06:45:38.236Z,-6.07
2018-03-01T06:46:48.033Z,-6.01
2018-03-01T06:47:58.089Z,-5.99
2018-03-01T06:49:08.275Z,-5.97
2018-03-01T06:50:18.339Z,-5.94
2018-03-01T06:51:27.886Z,-5.86
2018-03-01T06:52:37.926Z,-5.81
2018-03-01T06:53:47.704Z,-5.79
2018-03-01T06:54:57.476Z,-5.89
2018-03-01T06:56:07.358Z,-5.7
2018-03-01T06:57:17.253Z,-5.63
2018-03-01T06:58:27.046Z,-5.63
2018-03-01T06:59:36.829Z,-5.58
2018-03-01T07:00:46.605Z,-5.55
2018-03-01T07:01:56.400Z,-5.48
2018-03-01T07:03:06.210Z,-5.47
2018-03-01T07:04:16.268Z,-5.42
2018-03-01T07:05:26.071Z,-5.41
2018-03-01T07:06:36.126Z,-5.35
2018-03-01T07:07:45.928Z,-5.29
2018-03-01T07:08:56.030Z,-5.27
2018-03-01T07:10:05.797Z,-5.12
2018-03-01T07:11:15.953Z,-5.19
2018-03-01T07:12:26.150Z,-5.1
2018-03-01T07:13:35.948Z,-4.97
2018-03-01T07:14:45.746Z,-5
2018-03-01T07:15:55.789Z,-4.92
2018-03-01T07:17:05.828Z,-4.9
2018-03-01T07:18:15.621Z,-4.86
2018-03-01T07:19:25.681Z,-4.73
2018-03-01T07:20:35.743Z,-4.66
2018-03-01T07:21:45.811Z,-4.57
2018-03-01T07:22:55.601Z,-4.57
2018-03-01T07:24:05.675Z,-4.61
2018-03-01T07:25:15.205Z,-4.47
2018-03-01T07:26:24.559Z,-4.54
2018-03-01T07:27:34.085Z,-4.51
2018-03-01T07:28:43.881Z,-4.37
2018-03-01T07:29:53.917Z,-4.27
2018-03-01T07:31:03.716Z,-4.26
2018-03-01T07:32:13.302Z,-4.23
2018-03-01T07:33:23.092Z,-4.22
2018-03-01T07:34:33.167Z,-4.11
2018-03-01T07:35:42.701Z,-4.05
2018-03-01T07:36:52.247Z,-3.91
2018-03-01T07:38:02.425Z,-3.9
2018-03-01T07:39:11.675Z,-3.8
2018-03-01T07:40:21.474Z,-3.69
2018-03-01T07:41:31.277Z,-3.71
2018-03-01T07:42:41.317Z,-3.76
2018-03-01T07:43:51.110Z,-3.65
2018-03-01T07:45:01.157Z,-3.57
2018-03-01T07:46:11.153Z,-3.61
2018-03-01T07:47:21.213Z,-3.47
2018-03-01T07:48:31.011Z,-3.4
2018-03-01T07:49:40.524Z,-3.45
2018-03-01T07:50:50.319Z,-3.36
2018-03-01T07:52:00.378Z,-3.29
2018-03-01T07:53:10.428Z,-3.29
2018-03-01T07:54:20.476Z,-3.3
2018-03-01T07:55:30.546Z,-3.17
2018-03-01T07:56:40.348Z,-3.07
2018-03-01T07:57:50.397Z,-3.04
2018-03-01T07:58:59.932Z,-2.93
2018-03-01T08:00:10.006Z,-2.75
2018-03-01T08:01:20.070Z,-2.68
2018-03-01T08:02:29.591Z,-2.73
2018-03-01T08:03:39.396Z,-2.54
2018-03-01T08:04:49.186Z,-2.57
2018-03-01T08:05:58.998Z,-2.58
2018-03-01T08:07:09.049Z,-2.49
2018-03-01T08:08:18.574Z,-2.44
2018-03-01T08:09:28.406Z,-2.43
2018-03-01T08:10:38.460Z,-2.4
2018-03-01T08:11:48.272Z,-2.43
2018-03-01T08:12:58.326Z,-2.39
2018-03-01T08:14:07.318Z,-2.28
2018-03-01T08:15:17.388Z,-2.3
2018-03-01T08:16:27.179Z,-2.23
2018-03-01T08:17:36.716Z,-2.15
2018-03-01T08:18:46.227Z,-2.15
2018-03-01T08:19:55.753Z,-2.02
2018-03-01T08:21:05.815Z,-2.09
2018-03-01T08:22:15.610Z,-2.1
2018-03-01T08:23:25.400Z,-1.97
2018-03-01T08:24:35.458Z,-1.99
2018-03-01T08:25:45.508Z,-1.82
2018-03-01T08:26:55.583Z,-1.73
2018-03-01T08:28:05.641Z,-1.71
2018-03-01T08:29:15.732Z,-1.55
2018-03-01T08:30:25.639Z,-1.6
2018-03-01T08:31:35.685Z,-1.48
2018-03-01T08:32:45.470Z,-1.42
2018-03-01T08:33:55.516Z,-1.25
2018-03-01T08:35:05.593Z,-1.3
2018-03-01T08:36:15.720Z,-1.28
2018-03-01T08:37:25.559Z,-1.22
2018-03-01T08:38:35.684Z,-1.17
2018-03-01T08:39:45.735Z,-1.03
2018-03-01T08:40:55.796Z,-0.93
2018-03-01T08:42:05.894Z,-0.92
2018-03-01T08:43:15.680Z,-0.92
2018-03-01T08:44:25.748Z,-0.85
2018-03-01T08:45:35.567Z,-0.64
2018-03-01T08:46:45.368Z,-0.64
2018-03-01T08:47:55.448Z,-0.51
2018-03-01T08:49:05.503Z,-0.37
2018-03-01T08:50:15.312Z,-0.2
2018-03-01T08:51:25.361Z,-0.19
2018-03-01T08:52:34.881Z,-0.09
2018-03-01T08:53:44.730Z,0.08
2018-03-01T08:54:54.797Z,0.23
2018-03-01T08:56:04.899Z,0.31
2018-03-01T08:57:14.440Z,0.32
2018-03-01T08:58:24.507Z,0.39
2018-03-01T08:59:34.044Z,0.44
2018-03-01T09:00:43.609Z,0.44
2018-03-01T09:01:53.684Z,0.61
2018-03-01T09:03:03.470Z,0.61
2018-03-01T09:04:13.530Z,0.67
2018-03-01T09:05:23.813Z,0.74
2018-03-01T09:06:33.875Z,0.74
2018-03-01T09:07:43.657Z,0.72
2018-03-01T09:08:53.187Z,0.86
2018-03-01T09:10:02.991Z,0.89
2018-03-01T09:11:12.988Z,0.97
2018-03-01T09:12:23.040Z,1.11
2018-03-01T09:13:33.105Z,0.99
2018-03-01T09:14:43.147Z,1.07
2018-03-01T09:15:52.948Z,1.03
2018-03-01T09:17:02.486Z,1.12
2018-03-01T09:18:12.021Z,1.22
2018-03-01T09:19:22.098Z,1.3
2018-03-01T09:20:31.936Z,1.32
2018-03-01T09:21:41.729Z,1.28
2018-03-01T09:22:51.782Z,1.42
2018-03-01T09:24:01.580Z,1.33
2018-03-01T09:25:11.648Z,1.32
2018-03-01T09:26:21.718Z,1.42
2018-03-01T09:27:31.765Z,1.47
2018-03-01T09:28:41.899Z,1.48
2018-03-01T09:29:51.424Z,1.51
2018-03-01T09:31:00.958Z,1.5
2018-03-01T09:32:10.757Z,1.42
2018-03-01T09:33:20.823Z,1.5
2018-03-01T09:34:30.928Z,1.3
2018-03-01T09:35:41.010Z,1.35
2018-03-01T09:36:51.110Z,1.39
2018-03-01T09:38:01.163Z,1.35
2018-03-01T09:39:10.979Z,1.44
2018-03-01T09:40:21.101Z,1.42
2018-03-01T09:41:31.442Z,1.46
2018-03-01T09:42:41.499Z,1.4
2018-03-01T09:43:51.574Z,1.56
2018-03-01T09:45:01.363Z,1.64
2018-03-01T09:46:11.464Z,1.74
2018-03-01T09:47:21.280Z,1.83
2018-03-01T09:48:31.347Z,1.86
2018-03-01T09:49:40.891Z,1.72
2018-03-01T09:50:50.694Z,1.83
2018-03-01T09:52:00.536Z,1.94
2018-03-01T09:53:10.593Z,1.97
2018-03-01T09:54:20.652Z,1.94
2018-03-01T09:55:30.752Z,2.13
2018-03-01T09:56:40.830Z,2.18
2018-03-01T09:57:50.914Z,2.16
2018-03-01T09:59:01.032Z,2.11
2018-03-01T10:00:11.090Z,2.29
2018-03-01T10:01:20.412Z,2.23
2018-03-01T10:02:30.457Z,2.27
2018-03-01T10:03:40.314Z,2.23
2018-03-01T10:04:50.424Z,2.2
2018-03-01T10:05:59.961Z,2.23
2018-03-01T10:07:09.525Z,2.31
2018-03-01T10:08:19.637Z,2.27
2018-03-01T10:09:29.484Z,2.4
2018-03-01T10:10:39.777Z,2.41
2018-03-01T10:11:49.620Z,2.36
2018-03-01T10:12:59.699Z,2.3
2018-03-01T10:14:09.225Z,2.26
2018-03-01T10:15:19.077Z,2.2
2018-03-01T10:16:28.355Z,2.36
2018-03-01T10:17:37.917Z,2.27
2018-03-01T10:18:47.458Z,2.15
2018-03-01T10:19:57.012Z,2.2
2018-03-01T10:21:07.080Z,2.2
2018-03-01T10:22:16.894Z,2.18
2018-03-01T10:23:26.702Z,2.18
2018-03-01T10:24:36.517Z,2.11
2018-03-01T10:25:46.594Z,2.23
2018-03-01T10:26:56.646Z,2.16
2018-03-01T10:28:06.727Z,2.2
2018-03-01T10:29:16.286Z,1.97
2018-03-01T10:30:26.347Z,1.94
2018-03-01T10:31:35.878Z,1.9
2018-03-01T10:32:45.949Z,1.94
2018-03-01T10:33:55.746Z,1.86
2018-03-01T10:35:05.545Z,1.92
2018-03-01T10:36:15.335Z,1.97
2018-03-01T10:37:25.155Z,1.93
2018-03-01T10:38:35.262Z,1.94
2018-03-01T10:39:45.345Z,1.94
2018-03-01T10:40:55.416Z,2.13
2018-03-01T10:42:05.268Z,2.29
2018-03-01T10:43:15.073Z,2.49
2018-03-01T10:44:31.616Z,2.6
2018-03-01T10:45:45.037Z,2.66
2018-03-01T10:46:54.884Z,2.59
2018-03-01T10:48:04.961Z,2.62
2018-03-01T10:49:15.038Z,2.66
2018-03-01T10:50:24.833Z,2.59
2018-03-01T10:51:34.902Z,2.47
2018-03-01T10:52:50.793Z,2.48
2018-03-01T10:54:01.426Z,2.23
2018-03-01T10:55:10.758Z,2.02
2018-03-01T10:56:20.851Z,2.09
2018-03-01T10:57:30.662Z,2.08
2018-03-01T10:58:40.464Z,2.01
2018-03-01T10:59:50.294Z,1.82
2018-03-01T11:01:00.371Z,1.86
2018-03-01T11:02:10.472Z,1.84
2018-03-01T11:03:20.554Z,1.86
2018-03-01T11:04:30.432Z,1.76
2018-03-01T11:05:40.239Z,1.66
2018-03-01T11:06:49.815Z,1.76
2018-03-01T11:07:59.352Z,1.65
2018-03-01T11:09:09.171Z,1.64
2018-03-01T11:10:19.244Z,1.65
2018-03-01T11:11:28.800Z,1.47
2018-03-01T11:12:38.958Z,1.5
2018-03-01T11:13:48.788Z,1.36
2018-03-01T11:14:58.614Z,1.36
2018-03-01T11:16:08.736Z,1.44
2018-03-01T11:17:18.638Z,1.57
2018-03-01T11:18:28.784Z,1.46
2018-03-01T11:19:38.619Z,1.48
2018-03-01T11:20:48.415Z,1.32
2018-03-01T11:21:57.688Z,1.39
2018-03-01T11:23:07.803Z,1.66
2018-03-01T11:24:17.087Z,1.54
2018-03-01T11:25:26.886Z,1.44
2018-03-01T11:26:36.734Z,1.35
2018-03-01T11:27:46.802Z,1.22
2018-03-01T11:28:57.001Z,1.3
2018-03-01T11:30:07.137Z,1.47
2018-03-01T11:31:16.695Z,1.72
2018-03-01T11:32:26.745Z,2.16
2018-03-01T11:33:36.550Z,2.59
2018-03-01T11:34:46.724Z,2.78
2018-03-01T11:35:56.980Z,2.81
2018-03-01T11:37:06.777Z,2.77
2018-03-01T11:38:16.605Z,2.77
2018-03-01T11:39:26.389Z,2.95
2018-03-01T11:40:36.447Z,3.11
2018-03-01T11:41:46.509Z,3.16
2018-03-01T11:42:56.581Z,3.29
2018-03-01T11:44:06.112Z,3.19
2018-03-01T11:45:16.174Z,2.98
2018-03-01T11:46:25.970Z,2.83
2018-03-01T11:47:36.049Z,2.73
2018-03-01T11:48:45.864Z,2.8
2018-03-01T11:49:55.926Z,2.6
2018-03-01T11:51:06.021Z,2.44
2018-03-01T11:52:15.571Z,2.22
2018-03-01T11:53:25.691Z,2.09
2018-03-01T11:54:35.516Z,2.01
2018-03-01T11:55:45.327Z,2.04
2018-03-01T11:56:55.137Z,1.9
2018-03-01T11:58:04.949Z,1.87
2018-03-01T11:59:15.071Z,1.89
2018-03-01T12:00:25.165Z,1.79
2018-03-01T12:01:35.005Z,1.72
2018-03-01T12:02:44.854Z,1.79
2018-03-01T12:03:54.657Z,1.78
2018-03-01T12:05:04.793Z,1.84
2018-03-01T12:06:14.645Z,1.86
2018-03-01T12:07:24.735Z,1.66
2018-03-01T12:08:34.844Z,1.79
2018-03-01T12:09:44.956Z,1.79
2018-03-01T12:10:54.869Z,1.83
2018-03-01T12:12:04.694Z,1.74
2018-03-01T12:13:14.780Z,1.82
2018-03-01T12:14:24.602Z,1.79
2018-03-01T12:15:34.684Z,1.9
2018-03-01T12:16:44.868Z,2.05
2018-03-01T12:17:54.962Z,2.12
2018-03-01T12:19:05.042Z,2.18
2018-03-01T12:20:14.847Z,2.26
2018-03-01T12:21:24.931Z,2.34
2018-03-01T12:22:35.006Z,2.15
2018-03-01T12:23:45.076Z,2.04
2018-03-01T12:24:55.136Z,1.82
2018-03-01T12:26:04.945Z,1.72
2018-03-01T12:27:15.046Z,1.69
2018-03-01T12:28:25.206Z,1.75
2018-03-01T12:29:35.298Z,1.6
2018-03-01T12:30:45.104Z,1.46
2018-03-01T12:31:55.219Z,1.35
2018-03-01T12:33:05.307Z,1.32
2018-03-01T12:34:15.446Z,1.32
2018-03-01T12:35:25.516Z,1.21
2018-03-01T12:36:35.595Z,1.18
2018-03-01T12:37:45.408Z,1.17
2018-03-01T12:38:55.479Z,1.17
2018-03-01T12:40:05.333Z,1.1
2018-03-01T12:41:15.412Z,1.18
2018-03-01T12:42:25.288Z,1.26
2018-03-01T12:43:36.810Z,1.12
2018-03-01T12:44:48.611Z,1.02
2018-03-01T12:46:04.016Z,1.02
2018-03-01T12:47:21.819Z,0.89
2018-03-01T12:48:39.397Z,0.84
2018-03-01T12:49:54.099Z,0.9
2018-03-01T12:51:04.481Z,0.99
2018-03-01T12:52:14.641Z,0.86
2018-03-01T12:53:24.708Z,0.97
2018-03-01T12:54:34.786Z,1.03
2018-03-01T12:55:44.864Z,1.18
2018-03-01T12:56:54.951Z,1.47
2018-03-01T12:58:05.025Z,1.39
2018-03-01T12:59:15.069Z,1.46
2018-03-01T13:00:24.882Z,1.44
2018-03-01T13:01:34.686Z,1.28
2018-03-01T13:02:44.834Z,1.18
2018-03-01T13:03:54.911Z,1.04
2018-03-01T13:05:04.982Z,1.08
2018-03-01T13:06:15.079Z,1.03
2018-03-01T13:07:25.153Z,1.18
2018-03-01T13:08:34.989Z,1.12
2018-03-01T13:09:45.040Z,1.15
2018-03-01T13:10:55.126Z,1.14
2018-03-01T13:12:04.664Z,1.21
2018-03-01T13:13:14.738Z,1.17
2018-03-01T13:14:24.860Z,1.3
2018-03-01T13:15:34.947Z,1.3
2018-03-01T13:16:45.041Z,1.18
2018-03-01T13:17:55.118Z,1.03
2018-03-01T13:19:04.943Z,1.11
2018-03-01T13:20:14.814Z,1.36
2018-03-01T13:21:24.619Z,1.4
2018-03-01T13:22:34.174Z,1.6
2018-03-01T13:23:44.252Z,1.48
2018-03-01T13:24:54.358Z,1.38
2018-03-01T13:26:04.522Z,1.33
2018-03-01T13:27:14.384Z,1.44
2018-03-01T13:28:24.460Z,1.36
2018-03-01T13:29:34.597Z,1.39
2018-03-01T13:30:44.404Z,1.46
2018-03-01T13:31:54.500Z,1.42
2018-03-01T13:33:04.305Z,1.32
2018-03-01T13:34:14.183Z,1.22
2018-03-01T13:35:23.975Z,1.11
2018-03-01T13:36:33.791Z,0.97
2018-03-01T13:37:43.355Z,1.02
2018-03-01T13:39:03.010Z,1.04
2018-03-01T13:40:13.110Z,1.04
2018-03-01T13:41:23.188Z,1.03
2018-03-01T13:42:33.279Z,1.04
2018-03-01T13:43:43.392Z,1.11
2018-03-01T13:44:53.528Z,1.03
2018-03-01T13:46:03.630Z,1.03
2018-03-01T13:47:13.171Z,0.93
2018-03-01T13:48:22.982Z,0.89
2018-03-01T13:49:32.262Z,0.85
2018-03-01T13:50:42.378Z,0.76
2018-03-01T13:51:51.932Z,0.72
2018-03-01T13:53:01.767Z,0.64
2018-03-01T13:54:11.861Z,0.53
2018-03-01T13:55:21.935Z,0.6
2018-03-01T13:56:32.018Z,0.42
2018-03-01T13:57:41.301Z,0.39
2018-03-01T13:58:51.395Z,0.41
2018-03-01T14:00:01.178Z,0.39
2018-03-01T14:01:11.286Z,0.35
2018-03-01T14:02:21.364Z,0.31
2018-03-01T14:03:31.439Z,0.28
2018-03-01T14:04:41.245Z,0.23
2018-03-01T14:05:50.800Z,0.19
2018-03-01T14:07:00.875Z,0.13
2018-03-01T14:08:10.728Z,0.23
2018-03-01T14:09:20.786Z,0.1
2018-03-01T14:10:30.348Z,0.14
2018-03-01T14:11:40.164Z,0.2
2018-03-01T14:12:49.957Z,0.2
2018-03-01T14:13:59.752Z,0.26
2018-03-01T14:15:09.834Z,0.32
2018-03-01T14:16:19.948Z,0.16
2018-03-01T14:17:29.485Z,0.1
2018-03-01T14:18:39.275Z,0.13
2018-03-01T14:19:49.102Z,-0.01
2018-03-01T14:20:59.168Z,-0.09
2018-03-01T14:22:08.967Z,-0.13
2018-03-01T14:23:18.790Z,-0.12
2018-03-01T14:24:28.860Z,-0.12
2018-03-01T14:25:39.037Z,-0.1
2018-03-01T14:26:48.848Z,0.02
2018-03-01T14:27:58.403Z,0.1
2018-03-01T14:29:08.182Z,0.19
2018-03-01T14:30:18.249Z,0.2
2018-03-01T14:31:28.047Z,0.19
2018-03-01T14:32:37.624Z,0.02
2018-03-01T14:33:47.671Z,0.02
2018-03-01T14:34:57.464Z,0.06
2018-03-01T14:36:07.277Z,0.09
2018-03-01T14:37:17.402Z,0.1
2018-03-01T14:38:27.537Z,0.16
2018-03-01T14:39:37.613Z,0.17
2018-03-01T14:40:47.180Z,0.05
2018-03-01T14:41:56.710Z,0.02
2018-03-01T14:43:06.532Z,0.16
2018-03-01T14:44:16.593Z,-0.02
2018-03-01T14:45:26.665Z,-0.02
2018-03-01T14:46:36.743Z,-0.07
2018-03-01T14:47:46.549Z,-0.04
2018-03-01T14:48:56.687Z,-0.09
2018-03-01T14:50:06.534Z,0.01
2018-03-01T14:51:16.334Z,-0.1
2018-03-01T14:52:26.418Z,-0.22
2018-03-01T14:53:36.489Z,-0.15
2018-03-01T14:54:46.289Z,-0.2
2018-03-01T14:55:56.444Z,-0.25
2018-03-01T14:57:06.254Z,-0.22
2018-03-01T14:58:15.536Z,-0.2
2018-03-01T14:59:25.352Z,-0.12
2018-03-01T15:00:34.874Z,-0.15
2018-03-01T15:01:45.009Z,-0.1
2018-03-01T15:02:55.090Z,-0.04
2018-03-01T15:04:05.165Z,-0.27
2018-03-01T15:05:14.709Z,-0.18
2018-03-01T15:06:24.268Z,-0.18
2018-03-01T15:07:34.315Z,-0.18
2018-03-01T15:08:44.102Z,-0.23
2018-03-01T15:09:54.172Z,-0.19
2018-03-01T15:11:03.720Z,-0.2
2018-03-01T15:12:13.802Z,-0.23
2018-03-01T15:13:23.622Z,-0.19
2018-03-01T15:14:33.151Z,-0.3
2018-03-01T15:15:43.222Z,-0.33
2018-03-01T15:16:53.047Z,-0.41
2018-03-01T15:18:02.571Z,-0.38
2018-03-01T15:19:12.435Z,-0.49
2018-03-01T15:20:22.241Z,-0.45
2018-03-01T15:21:32.337Z,-0.45
2018-03-01T15:22:42.162Z,-0.41
2018-03-01T15:23:52.238Z,-0.4
2018-03-01T15:25:02.323Z,-0.31
2018-03-01T15:26:12.154Z,-0.33
2018-03-01T15:27:22.217Z,-0.36
2018-03-01T15:28:32.015Z,-0.37
2018-03-01T15:29:41.551Z,-0.38
2018-03-01T15:30:51.675Z,-0.51
2018-03-01T15:32:01.761Z,-0.52
2018-03-01T15:33:11.830Z,-0.52
2018-03-01T15:34:21.900Z,-0.66
2018-03-01T15:35:31.977Z,-0.59
2018-03-01T15:36:42.089Z,-0.66
2018-03-01T15:37:51.892Z,-0.76
2018-03-01T15:39:01.957Z,-0.77
2018-03-01T15:40:11.633Z,-0.84
2018-03-01T15:41:21.717Z,-0.85
2018-03-01T15:42:31.256Z,-0.89
2018-03-01T15:43:41.358Z,-0.89
2018-03-01T15:44:51.176Z,-1.01